createdAt,value
2019-04-19T00:00:56.941Z,12.60
2019-04-19T00:03:28.532Z,12.60
2019-04-19T00:06:05.931Z,12.50
2019-04-19T00:08:43.490Z,12.50
2019-04-19T00:11:15.610Z,12.50
2019-04-19T00:13:32.570Z,12.40
2019-04-19T00:16:02.371Z,12.40
2019-04-19T00:18:32.675Z,12.30
2019-04-19T00:21:19.814Z,12.30
2019-04-19T00:23:38.318Z,12.20
2019-04-19T00:26:01.934Z,12.20
2019-04-19T00:28:40.488Z,12.20
2019-04-19T00:31:17.934Z,12.10
2019-04-19T00:33:38.986Z,12.00
2019-04-19T00:36:02.589Z,12.00
2019-04-19T00:38:42.485Z,11.90
2019-04-19T00:41:37.068Z,11.90
2019-04-19T00:44:09.222Z,11.90
2019-04-19T00:46:53.407Z,12.10
2019-04-19T00:49:14.593Z,12.10
2019-04-19T00:51:57.198Z,12.10
2019-04-19T00:54:12.817Z,12.00
2019-04-19T00:56:42.629Z,12.00
2019-04-19T00:59:05.730Z,11.90
2019-04-19T01:01:32.886Z,11.90
2019-04-19T01:04:05.115Z,12.00
2019-04-19T01:06:41.306Z,11.90
2019-04-19T01:09:22.727Z,11.90
2019-04-19T01:11:46.217Z,12.00
2019-04-19T01:14:18.373Z,12.00
2019-04-19T01:16:51.557Z,12.00
2019-04-19T01:19:08.078Z,12.30
2019-04-19T01:21:34.415Z,12.30
2019-04-19T01:24:05.005Z,12.30
2019-04-19T01:26:39.054Z,12.20
2019-04-19T01:29:08.520Z,12.10
2019-04-19T01:31:34.015Z,12.10
2019-04-19T01:34:09.487Z,12.10
2019-04-19T01:36:38.508Z,12.10
2019-04-19T01:39:21.933Z,12.10
2019-04-19T01:41:47.836Z,12.00
2019-04-19T01:44:29.142Z,12.00
2019-04-19T01:47:06.579Z,11.90
2019-04-19T01:49:43.787Z,11.90
2019-04-19T01:52:30.450Z,11.80
2019-04-19T01:54:49.008Z,11.80
2019-04-19T01:57:06.314Z,11.80
2019-04-19T01:59:40.687Z,11.70
2019-04-19T02:02:09.396Z,11.70
2019-04-19T02:04:36.566Z,11.70
2019-04-19T02:07:12.528Z,11.70
2019-04-19T02:09:52.872Z,11.60
2019-04-19T02:12:22.482Z,11.60
2019-04-19T02:14:43.467Z,11.60
2019-04-19T02:17:09.815Z,11.50
2019-04-19T02:19:37.312Z,11.50
2019-04-19T02:22:15.111Z,11.40
2019-04-19T02:24:42.321Z,11.40
2019-04-19T02:27:10.146Z,11.40
2019-04-19T02:29:38.462Z,11.50
2019-04-19T02:32:27.758Z,11.60
2019-04-19T02:37:32.252Z,11.50
2019-04-19T02:45:08.284Z,11.20
2019-04-19T02:50:06.661Z,11.10
2019-04-19T03:00:28.414Z,11.20
2019-04-19T03:07:21.962Z,11.20
2019-04-19T03:09:51.689Z,11.10
2019-04-19T03:12:57.162Z,11.10
2019-04-19T03:15:07.559Z,11.20
2019-04-19T03:17:41.374Z,11.30
2019-04-19T03:20:07.872Z,11.20
2019-04-19T03:22:35.758Z,11.20
2019-04-19T03:25:12.001Z,11.40
2019-04-19T03:27:30.809Z,11.40
2019-04-19T03:30:05.694Z,11.20
2019-04-19T03:35:06.468Z,10.80
2019-04-19T03:37:48.461Z,10.70
2019-04-19T03:40:18.900Z,10.50
2019-04-19T03:42:49.094Z,10.30
2019-04-19T03:45:18.018Z,10.10
2019-04-19T03:47:53.285Z,10.00
2019-04-19T03:50:20.099Z,9.90
2019-04-19T03:52:48.413Z,9.80
2019-04-19T03:55:18.955Z,9.70
2019-04-19T03:57:43.537Z,9.50
2019-04-19T04:00:04.888Z,9.40
2019-04-19T04:02:38.049Z,9.40
2019-04-19T04:05:10.887Z,9.30
2019-04-19T04:07:35.624Z,9.20
2019-04-19T04:10:08.097Z,9.00
2019-04-19T04:12:49.313Z,9.10
2019-04-19T04:15:38.149Z,9.20
2019-04-19T04:17:54.223Z,9.20
2019-04-19T04:20:22.834Z,9.20
2019-04-19T04:22:54.653Z,9.10
2019-04-19T04:25:27.625Z,9.00
2019-04-19T04:28:01.699Z,9.00
2019-04-19T04:30:29.694Z,8.90
2019-04-19T04:33:05.256Z,8.90
2019-04-19T04:35:41.383Z,8.90
2019-04-19T04:38:07.795Z,8.90
2019-04-19T04:40:25.447Z,8.90
2019-04-19T04:43:13.841Z,8.90
2019-04-19T04:46:09.094Z,9.00
2019-04-19T04:48:39.886Z,9.00
2019-04-19T04:51:14.433Z,9.00
2019-04-19T04:53:22.100Z,9.00
2019-04-19T04:56:05.547Z,9.10
2019-04-19T04:58:36.759Z,9.20
2019-04-19T05:01:05.831Z,9.30
2019-04-19T05:03:51.058Z,9.30
2019-04-19T05:06:23.298Z,9.40
2019-04-19T05:08:50.484Z,9.50
2019-04-19T05:11:20.400Z,10.40
2019-04-19T05:13:56.063Z,12.50
2019-04-19T05:16:28.737Z,14.30
2019-04-19T05:18:52.342Z,15.70
2019-04-19T05:21:26.172Z,16.70
2019-04-19T05:24:02.501Z,17.50
2019-04-19T05:26:33.726Z,18.30
2019-04-19T05:28:50.225Z,18.70
2019-04-19T05:31:09.019Z,19.20
2019-04-19T05:33:50.170Z,19.30
2019-04-19T05:36:24.701Z,19.40
2019-04-19T05:39:00.110Z,19.70
2019-04-19T05:41:26.286Z,18.60
2019-04-19T05:46:50.145Z,17.50
2019-04-19T05:49:16.323Z,17.60
2019-04-19T05:54:05.385Z,17.00
2019-04-19T05:56:31.069Z,16.40
2019-04-19T05:59:08.940Z,16.20
2019-04-19T06:01:48.104Z,16.20
2019-04-19T06:04:17.092Z,16.20
2019-04-19T06:06:52.727Z,16.20
2019-04-19T06:09:00.569Z,16.40
2019-04-19T06:11:33.293Z,16.90
2019-04-19T06:14:19.135Z,17.30
2019-04-19T06:16:45.513Z,17.60
2019-04-19T06:19:24.769Z,18.00
2019-04-19T06:21:50.619Z,18.00
2019-04-19T06:24:28.740Z,17.70
2019-04-19T06:27:00.925Z,17.80
2019-04-19T06:29:31.391Z,17.60
2019-04-19T06:32:00.673Z,17.50
2019-04-19T06:34:29.181Z,17.80
2019-04-19T06:36:36.018Z,17.70
2019-04-19T06:39:07.865Z,18.20
2019-04-19T06:41:44.033Z,18.50
2019-04-19T06:44:18.198Z,18.10
2019-04-19T06:46:51.312Z,18.30
2019-04-19T06:49:13.282Z,18.30
2019-04-19T06:51:45.395Z,17.90
2019-04-19T06:54:10.514Z,17.90
2019-04-19T06:56:41.327Z,18.10
2019-04-19T06:59:18.142Z,18.70
2019-04-19T07:01:45.396Z,19.10
2019-04-19T07:04:08.572Z,19.90
2019-04-19T07:06:59.625Z,20.00
2019-04-19T07:09:31.039Z,19.90
2019-04-19T07:12:05.327Z,19.30
2019-04-19T07:14:15.543Z,19.60
2019-04-19T07:17:04.230Z,19.70
2019-04-19T07:19:31.366Z,20.00
2019-04-19T07:21:55.561Z,20.20
2019-04-19T07:24:34.005Z,20.20
2019-04-19T07:26:59.394Z,20.50
2019-04-19T07:29:10.771Z,20.60
2019-04-19T07:31:40.158Z,20.50
2019-04-19T07:34:28.971Z,20.50
2019-04-19T07:36:57.577Z,20.40
2019-04-19T07:39:28.375Z,20.60
2019-04-19T07:42:05.462Z,20.70
2019-04-19T07:44:21.190Z,20.70
2019-04-19T07:47:13.949Z,21.30
2019-04-19T07:49:40.374Z,21.70
2019-04-19T07:52:12.362Z,21.60
2019-04-19T07:54:34.135Z,21.40
2019-04-19T07:57:39.426Z,21.80
2019-04-19T08:02:36.149Z,22.10
2019-04-19T08:05:06.191Z,21.70
2019-04-19T08:07:41.602Z,21.80
2019-04-19T08:12:29.379Z,23.00
2019-04-19T08:27:30.998Z,22.80
2019-04-19T08:29:46.982Z,23.20
2019-04-19T08:32:09.128Z,22.20
2019-04-19T08:34:39.593Z,22.90
2019-04-19T08:37:18.397Z,22.10
2019-04-19T08:39:54.801Z,21.90
2019-04-19T08:42:25.847Z,22.20
2019-04-19T08:44:49.272Z,21.80
2019-04-19T08:47:21.906Z,22.20
2019-04-19T08:49:48.216Z,22.50
2019-04-19T08:52:23.557Z,21.60
2019-04-19T08:55:08.811Z,21.10
2019-04-19T08:57:22.229Z,21.40
2019-04-19T09:00:14.835Z,21.50
2019-04-19T09:02:34.501Z,21.90
2019-04-19T09:05:04.216Z,21.80
2019-04-19T09:07:57.583Z,21.70
2019-04-19T09:10:22.116Z,22.10
2019-04-19T09:12:34.565Z,22.30
2019-04-19T09:15:11.557Z,22.10
2019-04-19T09:17:58.093Z,22.10
2019-04-19T09:22:37.207Z,22.20
2019-04-19T09:24:57.721Z,21.90
2019-04-19T09:27:42.029Z,22.30
2019-04-19T09:30:12.518Z,22.00
2019-04-19T09:32:27.289Z,22.00
2019-04-19T09:34:57.707Z,22.40
2019-04-19T09:37:40.039Z,22.30
2019-04-19T09:40:02.783Z,22.20
2019-04-19T09:42:37.896Z,22.70
2019-04-19T09:44:57.439Z,22.40
2019-04-19T09:47:24.883Z,22.80
2019-04-19T09:50:09.153Z,22.60
2019-04-19T09:52:51.243Z,22.30
2019-04-19T09:55:15.602Z,22.20
2019-04-19T09:57:46.716Z,22.40
2019-04-19T10:00:03.298Z,22.40
2019-04-19T10:02:31.681Z,22.60
2019-04-19T10:04:54.995Z,23.50
2019-04-19T10:07:27.089Z,23.30
2019-04-19T10:10:04.234Z,24.00
2019-04-19T10:12:27.100Z,23.50
2019-04-19T10:14:55.849Z,23.00
2019-04-19T10:17:24.848Z,23.20
2019-04-19T10:19:53.472Z,23.30
2019-04-19T10:22:22.943Z,24.30
2019-04-19T10:24:54.058Z,24.60
2019-04-19T10:27:29.599Z,24.00
2019-04-19T10:29:59.942Z,24.30
2019-04-19T10:32:30.823Z,24.30
2019-04-19T10:35:00.877Z,24.50
2019-04-19T10:37:29.614Z,25.20
2019-04-19T10:39:59.548Z,24.80
2019-04-19T10:42:29.366Z,25.00
2019-04-19T10:44:58.295Z,25.30
2019-04-19T10:47:29.189Z,25.70
2019-04-19T10:50:11.860Z,25.50
2019-04-19T10:52:27.608Z,24.80
2019-04-19T10:54:57.153Z,23.60
2019-04-19T10:57:27.383Z,24.00
2019-04-19T10:59:58.847Z,25.10
2019-04-19T11:02:29.843Z,26.10
2019-04-19T11:04:58.841Z,25.60
2019-04-19T11:07:27.678Z,25.40
2019-04-19T11:09:57.710Z,25.50
2019-04-19T11:12:26.541Z,26.00
2019-04-19T11:14:55.154Z,25.70
2019-04-19T11:17:25.406Z,25.70
2019-04-19T11:20:05.656Z,25.40
2019-04-19T11:22:25.783Z,25.00
2019-04-19T11:24:54.533Z,25.30
2019-04-19T11:27:23.000Z,25.70
2019-04-19T11:29:54.295Z,25.70
2019-04-19T11:32:24.544Z,26.20
2019-04-19T11:34:55.540Z,27.00
2019-04-19T11:37:25.479Z,26.70
2019-04-19T11:39:55.135Z,26.30
2019-04-19T11:42:23.944Z,26.40
2019-04-19T11:44:52.393Z,26.20
2019-04-19T11:47:20.872Z,26.30
2019-04-19T11:49:49.418Z,26.70
2019-04-19T11:52:19.899Z,26.80
2019-04-19T11:54:48.568Z,26.00
2019-04-19T11:57:36.591Z,26.30
2019-04-19T12:00:19.941Z,26.90
2019-04-19T12:02:50.196Z,26.40
2019-04-19T12:05:23.225Z,26.50
2019-04-19T12:07:48.979Z,26.50
2019-04-19T12:10:18.648Z,26.30
2019-04-19T12:12:47.256Z,25.80
2019-04-19T12:15:15.874Z,26.20
2019-04-19T12:17:44.516Z,27.20
2019-04-19T12:20:13.480Z,26.70
2019-04-19T12:22:42.013Z,26.40
2019-04-19T12:25:12.028Z,26.40
2019-04-19T12:27:41.535Z,26.30
2019-04-19T12:30:11.527Z,26.10
2019-04-19T12:32:41.747Z,26.40
2019-04-19T12:35:10.970Z,26.60
2019-04-19T12:37:40.766Z,26.80
2019-04-19T12:40:10.875Z,27.00
2019-04-19T12:42:40.293Z,27.00
2019-04-19T12:45:10.385Z,27.50
2019-04-19T12:47:38.826Z,28.20
2019-04-19T12:50:12.613Z,27.10
2019-04-19T12:52:42.205Z,27.10
2019-04-19T12:55:12.308Z,26.70
2019-04-19T12:57:54.717Z,26.30
2019-04-19T13:00:25.809Z,26.60
2019-04-19T13:03:00.008Z,26.50
2019-04-19T13:05:31.910Z,26.60
2019-04-19T13:08:01.009Z,26.60
2019-04-19T13:10:29.683Z,26.30
2019-04-19T13:12:58.429Z,26.30
2019-04-19T13:15:27.494Z,25.80
2019-04-19T13:17:56.309Z,25.20
2019-04-19T13:20:29.606Z,25.00
2019-04-19T13:22:55.084Z,25.10
2019-04-19T13:25:23.680Z,24.90
2019-04-19T13:27:55.909Z,25.00
2019-04-19T13:30:31.423Z,25.00
2019-04-19T13:32:54.540Z,25.00
2019-04-19T13:35:23.440Z,24.60
2019-04-19T13:38:10.384Z,24.60
2019-04-19T13:40:47.310Z,25.00
2019-04-19T13:43:17.107Z,24.60
2019-04-19T13:45:46.507Z,24.50
2019-04-19T13:48:16.659Z,24.30
2019-04-19T13:50:47.598Z,24.00
2019-04-19T13:53:16.017Z,24.30
2019-04-19T13:55:44.577Z,24.10
2019-04-19T13:58:13.814Z,24.00
2019-04-19T14:00:56.393Z,23.60
2019-04-19T14:03:25.584Z,24.00
2019-04-19T14:05:54.409Z,24.00
2019-04-19T14:08:23.092Z,23.90
2019-04-19T14:10:52.963Z,23.80
2019-04-19T14:13:21.685Z,23.60
2019-04-19T14:15:51.027Z,23.70
2019-04-19T14:18:19.762Z,23.60
2019-04-19T14:20:51.112Z,23.90
2019-04-19T14:23:19.417Z,23.90
2019-04-19T14:25:49.459Z,23.90
2019-04-19T14:28:18.494Z,24.00
2019-04-19T14:30:47.660Z,24.00
2019-04-19T14:33:17.031Z,24.00
2019-04-19T14:35:46.417Z,23.80
2019-04-19T14:38:15.904Z,23.60
2019-04-19T14:40:45.440Z,23.60
2019-04-19T14:43:14.777Z,23.60
2019-04-19T14:45:44.343Z,23.60
2019-04-19T14:48:15.559Z,23.70
2019-04-19T14:50:54.248Z,23.50
2019-04-19T14:53:14.254Z,23.60
2019-04-19T14:55:43.561Z,23.40
2019-04-19T14:58:12.185Z,23.60
2019-04-19T15:00:43.110Z,23.60
2019-04-19T15:03:23.016Z,23.50
2019-04-19T15:05:53.209Z,23.50
2019-04-19T15:08:22.492Z,23.40
2019-04-19T15:10:51.378Z,23.50
2019-04-19T15:13:20.946Z,23.50
2019-04-19T15:15:49.915Z,23.70
2019-04-19T15:18:19.090Z,23.50
2019-04-19T15:20:57.164Z,23.40
2019-04-19T15:23:18.788Z,23.50
2019-04-19T15:25:47.212Z,23.50
2019-04-19T15:28:16.910Z,23.40
2019-04-19T15:30:46.172Z,23.40
2019-04-19T15:33:16.355Z,23.50
2019-04-19T15:35:45.735Z,23.40
2019-04-19T15:38:14.553Z,23.40
2019-04-19T15:40:43.835Z,23.30
2019-04-19T15:43:12.977Z,23.20
2019-04-19T15:45:43.091Z,23.30
2019-04-19T15:48:12.911Z,23.30
2019-04-19T15:50:43.081Z,23.20
2019-04-19T15:53:11.779Z,23.30
2019-04-19T15:55:40.296Z,23.30
2019-04-19T15:58:08.913Z,23.30
2019-04-19T16:00:48.401Z,23.20
2019-04-19T16:03:36.187Z,23.10
2019-04-19T16:06:07.670Z,23.00
2019-04-19T16:08:41.023Z,22.90
2019-04-19T16:11:28.939Z,22.80
2019-04-19T16:13:57.582Z,22.60
2019-04-19T16:16:26.964Z,22.40
2019-04-19T16:18:56.259Z,22.40
2019-04-19T16:21:32.962Z,22.50
2019-04-19T16:23:55.314Z,22.40
2019-04-19T16:26:24.450Z,22.50
2019-04-19T16:28:53.642Z,22.50
2019-04-19T16:31:22.388Z,22.60
2019-04-19T16:33:52.176Z,22.60
2019-04-19T16:36:21.155Z,22.60
2019-04-19T16:38:50.961Z,22.60
2019-04-19T16:41:19.721Z,22.50
2019-04-19T16:43:49.303Z,22.40
2019-04-19T16:46:22.869Z,22.30
2019-04-19T16:48:48.587Z,22.30
2019-04-19T16:51:17.257Z,22.30
2019-04-19T16:53:46.347Z,22.20
2019-04-19T16:56:15.553Z,22.10
2019-04-19T16:58:44.693Z,22.10
2019-04-19T17:01:14.565Z,21.90
2019-04-19T17:03:43.719Z,21.80
2019-04-19T17:06:12.920Z,21.80
2019-04-19T17:08:41.747Z,21.80
2019-04-19T17:11:11.334Z,21.80
2019-04-19T17:13:40.673Z,21.80
2019-04-19T17:16:23.242Z,21.60
2019-04-19T17:18:56.876Z,21.50
2019-04-19T17:21:28.143Z,21.40
2019-04-19T17:23:56.677Z,21.40
2019-04-19T17:26:25.113Z,21.40
2019-04-19T17:28:54.782Z,21.40
2019-04-19T17:31:24.376Z,21.40
2019-04-19T17:33:54.063Z,21.30
2019-04-19T17:36:24.085Z,21.20
2019-04-19T17:38:55.005Z,21.10
2019-04-19T17:41:22.852Z,21.00
2019-04-19T17:43:51.281Z,20.90
2019-04-19T17:46:20.248Z,20.80
2019-04-19T17:48:48.961Z,20.70
2019-04-19T17:51:17.802Z,20.60
2019-04-19T17:53:50.100Z,20.50
2019-04-19T17:56:17.365Z,20.40
2019-04-19T17:58:46.425Z,20.30
2019-04-19T18:01:34.225Z,20.10
2019-04-19T18:04:02.901Z,20.00
2019-04-19T18:06:32.179Z,20.00
2019-04-19T18:09:05.684Z,19.90
2019-04-19T18:11:33.553Z,19.80
2019-04-19T18:14:01.439Z,19.70
2019-04-19T18:16:30.346Z,19.60
2019-04-19T18:19:00.319Z,19.40
2019-04-19T18:21:30.825Z,19.30
2019-04-19T18:24:09.531Z,19.20
2019-04-19T18:26:32.137Z,19.00
2019-04-19T18:29:00.916Z,18.90
2019-04-19T18:31:36.091Z,18.70
2019-04-19T18:34:04.161Z,18.60
2019-04-19T18:36:30.882Z,18.40
2019-04-19T18:39:00.248Z,18.30
2019-04-19T18:41:29.448Z,18.20
2019-04-19T18:44:10.116Z,18.20
2019-04-19T18:46:28.934Z,18.10
2019-04-19T18:48:57.852Z,17.90
2019-04-19T18:51:36.061Z,17.80
2019-04-19T18:54:09.896Z,17.80
2019-04-19T18:56:28.390Z,17.70
2019-04-19T18:59:02.270Z,17.60
2019-04-19T19:01:33.887Z,17.50
2019-04-19T19:03:57.962Z,17.40
2019-04-19T19:06:34.827Z,17.30
2019-04-19T19:09:02.447Z,17.20
2019-04-19T19:11:28.264Z,17.20
2019-04-19T19:13:57.221Z,17.00
2019-04-19T19:16:29.660Z,17.00
2019-04-19T19:18:58.053Z,16.90
2019-04-19T19:21:35.690Z,16.80
2019-04-19T19:24:22.434Z,16.70
2019-04-19T19:26:34.523Z,16.70
2019-04-19T19:28:58.245Z,16.70
2019-04-19T19:31:28.875Z,16.60
2019-04-19T19:33:58.861Z,16.60
2019-04-19T19:36:34.243Z,16.50
2019-04-19T19:39:06.772Z,16.40
2019-04-19T19:42:18.402Z,16.30
2019-04-19T19:44:10.088Z,16.30
2019-04-19T19:47:07.098Z,16.30
2019-04-19T19:49:36.962Z,16.30
2019-04-19T19:51:47.764Z,16.30
2019-04-19T19:56:55.282Z,16.10
2019-04-19T19:59:15.815Z,16.00
2019-04-19T20:01:51.364Z,15.90
2019-04-19T20:04:05.977Z,15.80
2019-04-19T20:06:34.591Z,15.60
2019-04-19T20:09:09.328Z,15.70
2019-04-19T20:11:37.221Z,15.80
2019-04-19T20:14:06.124Z,15.80
2019-04-19T20:16:36.582Z,15.80
2019-04-19T20:19:06.730Z,15.70
2019-04-19T20:21:38.718Z,15.70
2019-04-19T20:24:17.130Z,15.60
2019-04-19T20:26:50.165Z,15.60
2019-04-19T20:29:16.961Z,15.40
2019-04-19T20:31:40.895Z,14.90
2019-04-19T20:34:08.813Z,14.70
2019-04-19T20:36:41.396Z,14.40
2019-04-19T20:39:07.868Z,14.20
2019-04-19T20:41:40.218Z,14.00
2019-04-19T20:44:19.316Z,13.80
2019-04-19T20:46:37.900Z,13.60
2019-04-19T20:49:08.290Z,13.40
2019-04-19T20:51:49.390Z,13.30
2019-04-19T20:54:38.592Z,13.20
2019-04-19T20:57:24.041Z,13.10
2019-04-19T20:59:40.139Z,12.90
2019-04-19T21:01:59.181Z,12.70
2019-04-19T21:04:29.057Z,12.60
2019-04-19T21:07:05.268Z,12.50
2019-04-19T21:09:31.695Z,12.50
2019-04-19T21:11:58.321Z,12.40
2019-04-19T21:14:33.471Z,12.30
2019-04-19T21:17:01.052Z,12.20
2019-04-19T21:19:31.813Z,12.10
2019-04-19T21:21:58.901Z,12.10
2019-04-19T21:24:31.587Z,12.00
2019-04-19T21:27:05.869Z,11.90
2019-04-19T21:29:31.671Z,11.80
2019-04-19T21:32:00.834Z,11.80
2019-04-19T21:34:31.801Z,11.70
2019-04-19T21:37:01.923Z,11.60
2019-04-19T21:39:35.025Z,11.50
2019-04-19T21:42:04.374Z,11.40
2019-04-19T21:44:30.487Z,11.30
2019-04-19T21:47:03.461Z,11.20
2019-04-19T21:49:30.809Z,11.10
2019-04-19T21:52:05.504Z,11.00
2019-04-19T21:54:30.608Z,10.90
2019-04-19T21:57:00.413Z,10.90
2019-04-19T21:59:34.561Z,10.70
2019-04-19T22:01:59.600Z,10.70
2019-04-19T22:04:28.171Z,10.70
2019-04-19T22:07:00.816Z,10.60
2019-04-19T22:09:28.853Z,10.60
2019-04-19T22:11:58.487Z,10.50
2019-04-19T22:14:31.357Z,10.40
2019-04-19T22:16:58.830Z,10.30
2019-04-19T22:19:30.260Z,10.20
2019-04-19T22:21:58.707Z,10.20
2019-04-19T22:24:31.279Z,10.10
2019-04-19T22:26:58.947Z,10.00
2019-04-19T22:29:27.625Z,9.90
2019-04-19T22:32:03.717Z,9.70
2019-04-19T22:34:26.407Z,9.70
2019-04-19T22:36:58.787Z,9.50
2019-04-19T22:39:25.547Z,9.50
2019-04-19T22:41:54.833Z,9.40
2019-04-19T22:44:23.364Z,9.40
2019-04-19T22:46:54.934Z,9.40
2019-04-19T22:49:22.036Z,9.30
2019-04-19T22:51:50.937Z,9.10
2019-04-19T22:54:19.546Z,9.10
2019-04-19T22:56:58.814Z,9.10
2019-04-19T22:59:21.658Z,9.00
2019-04-19T23:01:55.420Z,8.90
2019-04-19T23:04:23.539Z,8.90
2019-04-19T23:06:54.544Z,8.80
2019-04-19T23:09:22.963Z,8.80
2019-04-19T23:11:51.230Z,8.80
2019-04-19T23:14:27.270Z,8.80
2019-04-19T23:16:55.291Z,8.80
2019-04-19T23:19:21.780Z,8.80
2019-04-19T23:21:54.202Z,8.80
2019-04-19T23:24:21.044Z,8.80
2019-04-19T23:27:04.264Z,8.80
2019-04-19T23:29:27.309Z,8.80
2019-04-19T23:31:52.889Z,8.90
2019-04-19T23:34:21.224Z,8.90
2019-04-19T23:36:57.115Z,8.80
2019-04-19T23:39:21.130Z,8.80
2019-04-19T23:41:51.026Z,8.70
2019-04-19T23:44:22.832Z,8.70
2019-04-19T23:46:56.960Z,8.60
2019-04-19T23:49:21.163Z,8.60
2019-04-19T23:51:51.467Z,8.50
2019-04-19T23:54:25.024Z,8.50
2019-04-19T23:57:01.985Z,8.50
2019-04-19T23:59:21.591Z,8.50
